createdAt,value
2022-10-20T00:01:57.557Z,8.47
2022-10-20T00:04:24.259Z,12.77
2022-10-20T00:06:50.943Z,8.97
2022-10-20T00:09:18.216Z,10.77
2022-10-20T00:11:45.969Z,7.43
2022-10-20T00:14:12.981Z,6.03
2022-10-20T00:16:40.308Z,8.43
2022-10-20T00:19:07.245Z,11.07
2022-10-20T00:21:34.033Z,18.87
2022-10-20T00:24:01.533Z,11.67
2022-10-20T00:26:29.648Z,13.30
2022-10-20T00:28:56.814Z,25.33
2022-10-20T00:31:24.846Z,9.53
2022-10-20T00:33:51.525Z,18.60
2022-10-20T00:36:19.964Z,8.37
2022-10-20T00:38:46.852Z,7.43
2022-10-20T00:41:20.169Z,13.53
2022-10-20T00:43:57.300Z,11.00
2022-10-20T00:46:32.476Z,12.30
2022-10-20T00:49:06.148Z,18.50
2022-10-20T00:51:34.164Z,13.73
2022-10-20T00:54:08.623Z,10.50
2022-10-20T00:56:37.854Z,15.70
2022-10-20T00:59:05.305Z,8.43
2022-10-20T01:01:32.851Z,9.80
2022-10-20T01:04:00.735Z,15.80
2022-10-20T01:06:27.991Z,13.30
2022-10-20T01:08:55.241Z,15.40
2022-10-20T01:11:43.129Z,8.97
2022-10-20T01:14:24.641Z,11.20
2022-10-20T01:17:06.328Z,10.00
2022-10-20T01:20:05.024Z,12.50
2022-10-20T01:23:10.817Z,8.67
2022-10-20T01:25:55.526Z,18.30
2022-10-20T01:28:43.242Z,12.50
2022-10-20T01:31:35.574Z,11.83
2022-10-20T01:34:10.160Z,13.63
2022-10-20T01:36:54.740Z,14.70
2022-10-20T01:39:32.712Z,8.40
2022-10-20T01:42:07.882Z,11.50
2022-10-20T01:44:36.621Z,10.03
2022-10-20T01:47:03.778Z,15.40
2022-10-20T01:49:30.481Z,15.67
2022-10-20T01:51:57.152Z,10.97
2022-10-20T01:54:26.137Z,10.87
2022-10-20T01:57:33.380Z,13.73
2022-10-20T02:00:16.716Z,9.73
2022-10-20T02:02:52.244Z,9.47
2022-10-20T02:05:33.788Z,16.17
2022-10-20T02:08:26.110Z,12.00
2022-10-20T02:10:57.524Z,17.47
2022-10-20T02:13:25.789Z,8.17
2022-10-20T02:15:58.960Z,10.27
2022-10-20T02:18:31.352Z,13.63
2022-10-20T02:21:00.995Z,9.97
2022-10-20T02:23:35.008Z,8.33
2022-10-20T02:26:09.336Z,17.77
2022-10-20T02:28:38.802Z,13.77
2022-10-20T02:31:05.920Z,13.93
2022-10-20T02:33:34.028Z,11.03
2022-10-20T02:36:04.047Z,11.13
2022-10-20T02:38:30.723Z,13.43
2022-10-20T02:40:57.564Z,19.90
2022-10-20T02:43:24.200Z,10.20
2022-10-20T02:45:50.812Z,12.67
2022-10-20T02:48:17.513Z,12.70
2022-10-20T02:50:44.152Z,12.90
2022-10-20T02:53:10.772Z,11.63
2022-10-20T02:55:37.422Z,12.87
2022-10-20T02:58:04.061Z,11.73
2022-10-20T03:00:31.642Z,11.17
2022-10-20T03:02:58.385Z,16.73
2022-10-20T03:05:25.057Z,17.10
2022-10-20T03:07:51.748Z,14.30
2022-10-20T03:10:18.439Z,13.37
2022-10-20T03:12:45.261Z,10.30
2022-10-20T03:15:12.259Z,7.80
2022-10-20T03:17:39.350Z,11.93
2022-10-20T03:20:07.823Z,22.60
2022-10-20T03:22:34.483Z,23.13
2022-10-20T03:25:01.124Z,13.70
2022-10-20T03:27:27.747Z,9.47
2022-10-20T03:29:54.392Z,10.83
2022-10-20T03:32:21.029Z,15.50
2022-10-20T03:34:47.668Z,9.10
2022-10-20T03:37:14.349Z,16.73
2022-10-20T03:39:41.175Z,8.03
2022-10-20T03:42:07.868Z,11.80
2022-10-20T03:44:34.498Z,19.00
2022-10-20T03:47:01.145Z,11.33
2022-10-20T03:49:27.825Z,10.53
2022-10-20T03:51:54.513Z,10.47
2022-10-20T03:54:21.143Z,18.57
2022-10-20T03:56:47.776Z,10.37
2022-10-20T03:59:14.416Z,14.57
2022-10-20T04:01:45.291Z,8.30
2022-10-20T04:04:12.536Z,10.87
2022-10-20T04:06:39.228Z,17.77
2022-10-20T04:09:06.164Z,20.40
2022-10-20T04:11:33.365Z,12.80
2022-10-20T04:14:00.147Z,12.33
2022-10-20T04:16:26.799Z,12.37
2022-10-20T04:18:53.713Z,16.97
2022-10-20T04:21:20.349Z,15.50
2022-10-20T04:23:47.075Z,11.80
2022-10-20T04:26:15.832Z,25.63
2022-10-20T04:28:42.910Z,10.60
2022-10-20T04:31:09.725Z,13.67
2022-10-20T04:33:36.471Z,11.03
2022-10-20T04:36:08.483Z,15.30
2022-10-20T04:38:35.996Z,11.00
2022-10-20T04:41:04.989Z,13.53
2022-10-20T04:43:33.199Z,14.70
2022-10-20T04:46:07.276Z,16.67
2022-10-20T04:48:37.126Z,15.10
2022-10-20T04:51:07.357Z,22.00
2022-10-20T04:53:34.658Z,39.57
2022-10-20T04:56:02.051Z,16.77
2022-10-20T04:58:28.918Z,23.57
2022-10-20T05:01:07.898Z,17.30
2022-10-20T05:03:35.578Z,18.40
2022-10-20T05:06:17.510Z,21.93
2022-10-20T05:08:48.989Z,20.83
2022-10-20T05:11:16.426Z,16.90
2022-10-20T05:13:43.263Z,16.33
2022-10-20T05:16:10.707Z,18.90
2022-10-20T05:18:38.442Z,21.83
2022-10-20T05:21:13.751Z,16.00
2022-10-20T05:23:40.996Z,17.80
2022-10-20T05:26:10.727Z,22.37
2022-10-20T05:28:37.788Z,22.73
2022-10-20T05:31:08.204Z,15.90
2022-10-20T05:33:36.223Z,27.03
2022-10-20T05:36:10.847Z,17.47
2022-10-20T05:38:37.730Z,11.93
2022-10-20T05:41:12.489Z,18.17
2022-10-20T05:43:39.717Z,22.20
2022-10-20T05:46:06.981Z,22.80
2022-10-20T05:48:34.435Z,19.10
2022-10-20T05:51:14.805Z,20.47
2022-10-20T05:53:43.235Z,20.73
2022-10-20T05:56:12.773Z,17.83
2022-10-20T05:58:40.025Z,17.03
2022-10-20T06:01:06.719Z,23.20
2022-10-20T06:03:33.409Z,14.87
2022-10-20T06:06:01.067Z,14.03
2022-10-20T06:08:32.323Z,19.90
2022-10-20T06:11:07.473Z,18.80
2022-10-20T06:13:34.646Z,20.77
2022-10-20T06:16:06.060Z,20.73
2022-10-20T06:18:33.364Z,15.20
2022-10-20T06:21:02.037Z,21.90
2022-10-20T06:23:28.792Z,23.33
2022-10-20T06:25:55.635Z,18.23
2022-10-20T06:28:22.313Z,17.83
2022-10-20T06:30:48.952Z,14.53
2022-10-20T06:33:16.883Z,22.13
2022-10-20T06:35:43.561Z,20.00
2022-10-20T06:38:10.261Z,26.83
2022-10-20T06:40:36.870Z,21.47
2022-10-20T06:43:03.574Z,14.70
2022-10-20T06:45:30.292Z,23.60
2022-10-20T06:47:57.006Z,22.23
2022-10-20T06:50:23.763Z,12.57
2022-10-20T06:52:50.441Z,18.80
2022-10-20T06:55:17.145Z,16.10
2022-10-20T06:57:43.795Z,13.27
2022-10-20T07:00:10.808Z,16.80
2022-10-20T07:02:39.689Z,13.70
2022-10-20T07:05:06.879Z,17.23
2022-10-20T07:07:33.942Z,25.33
2022-10-20T07:10:00.663Z,15.83
2022-10-20T07:12:27.305Z,15.73
2022-10-20T07:14:53.945Z,21.40
2022-10-20T07:17:20.580Z,20.30
2022-10-20T07:19:47.222Z,19.43
2022-10-20T07:22:13.856Z,16.93
2022-10-20T07:24:40.557Z,22.30
2022-10-20T07:27:07.343Z,23.93
2022-10-20T07:32:05.596Z,24.30
2022-10-20T07:34:32.232Z,17.97
2022-10-20T07:36:59.178Z,23.77
2022-10-20T07:39:26.323Z,24.03
2022-10-20T07:41:53.313Z,24.80
2022-10-20T07:44:20.117Z,21.17
2022-10-20T07:46:46.843Z,22.70
2022-10-20T07:52:00.288Z,24.40
2022-10-20T07:54:27.046Z,35.47
2022-10-20T07:56:53.758Z,24.03
2022-10-20T07:59:20.497Z,24.80
2022-10-20T08:01:47.346Z,24.03
2022-10-20T08:04:14.093Z,28.37
2022-10-20T08:06:40.792Z,29.33
2022-10-20T08:09:07.798Z,21.70
2022-10-20T08:11:35.203Z,20.90
2022-10-20T08:14:01.882Z,24.80
2022-10-20T08:16:32.854Z,24.77
2022-10-20T08:19:08.496Z,31.17
2022-10-20T08:21:35.456Z,19.33
2022-10-20T08:24:02.763Z,26.47
2022-10-20T08:26:29.443Z,41.17
2022-10-20T08:28:56.144Z,35.90
2022-10-20T08:31:23.398Z,21.57
2022-10-20T08:33:52.832Z,21.20
2022-10-20T08:36:20.299Z,20.97
2022-10-20T08:38:47.067Z,32.50
2022-10-20T08:41:22.605Z,18.70
2022-10-20T08:43:51.805Z,21.83
2022-10-20T08:46:21.070Z,23.53
2022-10-20T08:48:49.100Z,19.67
2022-10-20T08:51:19.821Z,22.40
2022-10-20T08:53:47.872Z,21.93
2022-10-20T08:56:15.236Z,24.10
2022-10-20T08:58:44.099Z,18.37
2022-10-20T09:01:26.804Z,25.50
2022-10-20T09:04:02.691Z,20.63
2022-10-20T09:06:29.414Z,22.93
2022-10-20T09:08:57.465Z,25.30
2022-10-20T09:11:31.487Z,34.23
2022-10-20T09:13:58.235Z,30.30
2022-10-20T09:16:40.609Z,23.37
2022-10-20T09:19:20.944Z,21.03
2022-10-20T09:21:53.008Z,21.77
2022-10-20T09:24:22.334Z,22.33
2022-10-20T09:26:59.569Z,34.73
2022-10-20T09:29:38.019Z,23.17
2022-10-20T09:32:51.190Z,22.40
2022-10-20T09:35:24.848Z,23.00
2022-10-20T09:37:59.905Z,22.30
2022-10-20T09:40:27.274Z,23.13
2022-10-20T09:42:59.033Z,22.40
2022-10-20T09:45:31.280Z,22.67
2022-10-20T09:48:18.150Z,25.40
2022-10-20T09:50:49.680Z,20.50
2022-10-20T09:53:20.915Z,20.67
2022-10-20T09:55:49.606Z,21.47
2022-10-20T09:58:35.080Z,21.63
2022-10-20T10:01:12.382Z,22.70
2022-10-20T10:03:41.529Z,24.10
2022-10-20T10:06:28.308Z,23.97
2022-10-20T10:08:56.397Z,17.53
2022-10-20T10:11:28.699Z,16.97
2022-10-20T10:13:55.453Z,17.97
2022-10-20T10:16:26.501Z,20.57
2022-10-20T10:19:02.291Z,22.80
2022-10-20T10:21:30.963Z,24.27
2022-10-20T10:24:01.230Z,28.73
2022-10-20T10:26:52.350Z,19.90
2022-10-20T10:29:36.307Z,21.20
2022-10-20T10:32:03.102Z,22.07
2022-10-20T10:34:37.376Z,34.83
2022-10-20T10:37:04.261Z,21.00
2022-10-20T10:39:35.606Z,19.50
2022-10-20T10:42:27.005Z,24.10
2022-10-20T10:45:05.686Z,31.50
2022-10-20T10:48:09.031Z,21.23
2022-10-20T10:50:51.899Z,24.70
2022-10-20T10:53:42.608Z,23.40
2022-10-20T10:56:25.194Z,18.90
2022-10-20T10:59:05.479Z,21.73
2022-10-20T11:01:50.848Z,20.37
2022-10-20T11:04:40.381Z,25.23
2022-10-20T11:07:25.191Z,20.07
2022-10-20T11:09:51.891Z,21.40
2022-10-20T11:12:37.287Z,20.20
2022-10-20T11:15:25.090Z,20.73
2022-10-20T11:18:03.677Z,27.97
2022-10-20T11:20:40.632Z,26.37
2022-10-20T11:23:09.994Z,24.73
2022-10-20T11:25:46.096Z,21.30
2022-10-20T11:28:25.209Z,25.03
2022-10-20T11:30:52.134Z,25.17
2022-10-20T11:33:27.964Z,24.00
2022-10-20T11:36:09.086Z,23.33
2022-10-20T11:38:56.039Z,19.33
2022-10-20T11:41:45.800Z,17.53
2022-10-20T11:44:27.540Z,24.83
2022-10-20T11:47:07.945Z,22.13
2022-10-20T11:49:34.996Z,19.80
2022-10-20T11:52:11.127Z,22.70
2022-10-20T11:54:37.808Z,23.93
2022-10-20T11:57:23.013Z,22.80
2022-10-20T12:03:07.136Z,24.13
2022-10-20T12:05:45.433Z,19.07
2022-10-20T12:08:30.017Z,14.43
2022-10-20T12:11:05.767Z,20.43
2022-10-20T12:13:57.505Z,19.03
2022-10-20T12:16:52.050Z,18.37
2022-10-20T12:19:29.559Z,20.80
2022-10-20T12:22:16.437Z,22.10
2022-10-20T12:24:52.032Z,18.40
2022-10-20T12:27:29.562Z,28.20
2022-10-20T12:29:58.923Z,15.50
2022-10-20T12:32:36.939Z,14.40
2022-10-20T12:35:24.049Z,19.90
2022-10-20T12:38:04.069Z,20.40
2022-10-20T12:40:46.087Z,18.43
2022-10-20T12:43:37.375Z,15.57
2022-10-20T12:46:08.061Z,17.70
2022-10-20T12:48:40.812Z,21.13
2022-10-20T12:51:16.980Z,18.50
2022-10-20T12:53:43.913Z,16.90
2022-10-20T12:56:14.262Z,19.87
2022-10-20T12:59:08.823Z,17.90
2022-10-20T13:02:09.709Z,13.90
2022-10-20T13:05:08.745Z,15.93
2022-10-20T13:07:50.336Z,20.77
2022-10-20T13:10:36.551Z,14.97
2022-10-20T13:13:03.162Z,15.97
2022-10-20T13:15:38.935Z,16.27
2022-10-20T13:18:11.907Z,16.97
2022-10-20T13:20:57.361Z,17.53
2022-10-20T13:23:33.113Z,15.60
2022-10-20T13:26:09.777Z,15.00
2022-10-20T13:28:37.622Z,22.23
2022-10-20T13:31:19.032Z,14.30
2022-10-20T13:34:06.022Z,19.30
2022-10-20T13:36:55.711Z,12.90
2022-10-20T13:39:55.443Z,14.80
2022-10-20T13:42:36.649Z,15.27
2022-10-20T13:45:18.863Z,14.50
2022-10-20T13:47:55.813Z,23.27
2022-10-20T13:50:29.812Z,14.00
2022-10-20T13:53:20.653Z,19.60
2022-10-20T13:56:01.816Z,14.87
2022-10-20T13:58:28.609Z,17.10
2022-10-20T14:01:07.396Z,28.17
2022-10-20T14:03:45.488Z,19.53
2022-10-20T14:06:32.116Z,10.30
2022-10-20T14:09:09.405Z,14.80
2022-10-20T14:11:36.332Z,14.83
2022-10-20T14:14:03.459Z,12.27
2022-10-20T14:16:31.714Z,12.40
2022-10-20T14:19:11.275Z,15.00
2022-10-20T14:21:42.786Z,17.57
2022-10-20T14:24:16.476Z,12.27
2022-10-20T14:26:44.957Z,13.63
2022-10-20T14:30:11.628Z,22.20
2022-10-20T14:32:40.208Z,15.00
2022-10-20T14:35:26.130Z,36.17
2022-10-20T14:38:15.806Z,25.43
2022-10-20T14:40:49.923Z,21.83
2022-10-20T14:43:20.010Z,34.93
2022-10-20T14:45:59.391Z,49.70
2022-10-20T14:48:41.935Z,35.00
2022-10-20T14:51:35.025Z,23.37
2022-10-20T14:54:20.115Z,24.90
2022-10-20T14:56:48.357Z,22.83
2022-10-20T14:59:19.799Z,35.00
2022-10-20T15:02:02.750Z,34.97
2022-10-20T15:04:32.115Z,48.30
2022-10-20T15:07:05.483Z,25.80
2022-10-20T15:09:39.766Z,28.27
2022-10-20T15:12:19.606Z,27.73
2022-10-20T15:14:50.507Z,25.70
2022-10-20T15:17:37.574Z,23.70
2022-10-20T15:20:36.076Z,23.60
2022-10-20T15:23:08.564Z,30.60
2022-10-20T15:25:50.106Z,27.73
2022-10-20T15:28:37.752Z,26.93
2022-10-20T15:31:08.459Z,22.50
2022-10-20T15:33:35.174Z,39.10
2022-10-20T15:36:02.207Z,32.90
2022-10-20T15:38:28.969Z,34.23
2022-10-20T15:40:55.685Z,22.40
2022-10-20T15:43:22.497Z,30.67
2022-10-20T15:45:54.050Z,18.20
2022-10-20T15:48:23.111Z,21.10
2022-10-20T15:50:49.849Z,27.30
2022-10-20T15:53:18.418Z,18.13
2022-10-20T15:55:45.410Z,22.77
2022-10-20T15:58:12.135Z,18.37
2022-10-20T16:00:38.948Z,21.30
2022-10-20T16:03:06.205Z,24.30
2022-10-20T16:05:33.283Z,19.03
2022-10-20T16:08:00.219Z,21.60
2022-10-20T16:10:30.177Z,18.40
2022-10-20T16:12:58.015Z,19.50
2022-10-20T16:15:28.858Z,27.63
2022-10-20T16:17:58.060Z,19.57
2022-10-20T16:20:24.851Z,26.07
2022-10-20T16:22:51.491Z,27.33
2022-10-20T16:25:18.240Z,17.87
2022-10-20T16:27:44.896Z,18.73
2022-10-20T16:30:11.683Z,18.60
2022-10-20T16:32:38.702Z,19.00
2022-10-20T16:35:05.913Z,19.20
2022-10-20T16:37:33.410Z,23.53
2022-10-20T16:40:00.445Z,17.03
2022-10-20T16:42:30.199Z,16.70
2022-10-20T16:44:57.390Z,23.23
2022-10-20T16:47:25.940Z,20.93
2022-10-20T16:49:52.978Z,32.10
2022-10-20T16:52:20.311Z,23.70
2022-10-20T16:54:47.110Z,27.10
2022-10-20T16:57:13.990Z,23.60
2022-10-20T16:59:42.682Z,18.60
2022-10-20T17:02:12.051Z,23.43
2022-10-20T17:04:38.735Z,39.00
2022-10-20T17:07:05.754Z,47.97
2022-10-20T17:09:32.400Z,41.00
2022-10-20T17:11:59.107Z,29.77
2022-10-20T17:14:25.922Z,25.13
2022-10-20T17:16:52.658Z,35.07
2022-10-20T17:19:19.311Z,24.50
2022-10-20T17:21:46.139Z,24.47
2022-10-20T17:24:13.688Z,22.33
2022-10-20T17:26:41.393Z,25.90
2022-10-20T17:29:09.480Z,22.80
2022-10-20T17:31:37.519Z,22.10
2022-10-20T17:34:04.981Z,28.80
2022-10-20T17:36:32.339Z,35.17
2022-10-20T17:39:02.037Z,38.20
2022-10-20T17:41:29.230Z,39.63
2022-10-20T17:43:58.424Z,36.60
2022-10-20T17:46:25.151Z,26.87
2022-10-20T17:48:51.809Z,26.57
2022-10-20T17:51:21.324Z,26.23
2022-10-20T17:53:49.924Z,22.90
2022-10-20T17:56:23.871Z,27.77
2022-10-20T17:58:51.963Z,25.87
2022-10-20T18:01:24.814Z,23.00
2022-10-20T18:04:01.675Z,30.53
2022-10-20T18:06:34.109Z,32.10
2022-10-20T18:09:06.854Z,21.10
2022-10-20T18:11:35.411Z,27.83
2022-10-20T18:14:02.415Z,31.93
2022-10-20T18:16:32.459Z,26.00
2022-10-20T18:19:00.280Z,24.33
2022-10-20T18:21:28.696Z,22.60
2022-10-20T18:23:57.879Z,24.57
2022-10-20T18:26:25.532Z,23.27
2022-10-20T18:28:52.694Z,29.80
2022-10-20T18:31:22.141Z,34.43
2022-10-20T18:33:50.398Z,27.10
2022-10-20T18:36:19.864Z,24.80
2022-10-20T18:38:46.907Z,24.93
2022-10-20T18:41:22.484Z,31.20
2022-10-20T18:43:57.764Z,21.07
2022-10-20T18:46:26.451Z,21.70
2022-10-20T18:48:53.757Z,18.90
2022-10-20T18:51:20.637Z,28.30
2022-10-20T18:53:47.736Z,18.70
2022-10-20T18:56:16.206Z,25.50
2022-10-20T18:58:48.442Z,23.43
2022-10-20T19:01:17.171Z,30.40
2022-10-20T19:03:48.989Z,30.23
2022-10-20T19:06:19.909Z,34.37
2022-10-20T19:08:51.141Z,28.03
2022-10-20T19:11:18.460Z,29.73
2022-10-20T19:13:45.443Z,23.43
2022-10-20T19:16:15.994Z,25.33
2022-10-20T19:18:48.626Z,25.13
2022-10-20T19:21:16.050Z,26.97
2022-10-20T19:23:45.867Z,26.17
2022-10-20T19:26:15.838Z,29.57
2022-10-20T19:28:46.313Z,36.67
2022-10-20T19:31:31.577Z,26.30
2022-10-20T19:34:01.695Z,22.30
2022-10-20T19:36:29.329Z,26.47
2022-10-20T19:38:56.488Z,27.57
2022-10-20T19:41:24.061Z,23.27
2022-10-20T19:43:50.771Z,24.13
2022-10-20T19:46:19.081Z,21.40
2022-10-20T19:48:46.739Z,28.87
2022-10-20T19:51:15.809Z,26.60
2022-10-20T19:53:42.764Z,26.40
2022-10-20T19:56:10.541Z,32.80
2022-10-20T19:58:41.330Z,34.43
2022-10-20T20:01:10.898Z,24.60
2022-10-20T20:03:37.910Z,23.77
2022-10-20T20:06:11.423Z,24.13
2022-10-20T20:08:38.246Z,28.40
2022-10-20T20:11:05.680Z,28.67
2022-10-20T20:13:32.392Z,24.20
2022-10-20T20:16:07.440Z,27.33
2022-10-20T20:18:35.438Z,28.07
2022-10-20T20:21:03.934Z,24.60
2022-10-20T20:23:47.408Z,28.60
2022-10-20T20:26:17.849Z,25.87
2022-10-20T20:28:44.524Z,28.60
2022-10-20T20:31:12.521Z,23.40
2022-10-20T20:33:39.208Z,28.57
2022-10-20T20:36:08.099Z,22.27
2022-10-20T20:38:37.438Z,27.70
2022-10-20T20:41:07.716Z,32.73
2022-10-20T20:43:35.296Z,33.50
2022-10-20T20:46:06.306Z,21.40
2022-10-20T20:48:35.639Z,34.77
2022-10-20T20:51:02.595Z,22.13
2022-10-20T20:53:29.396Z,27.50
2022-10-20T20:56:01.746Z,31.97
2022-10-20T20:58:30.049Z,29.60
2022-10-20T21:01:14.769Z,27.23
2022-10-20T21:03:41.670Z,23.40
2022-10-20T21:06:11.218Z,27.27
2022-10-20T21:08:40.938Z,26.00
2022-10-20T21:11:09.993Z,26.87
2022-10-20T21:13:36.965Z,23.73
2022-10-20T21:16:11.039Z,23.67
2022-10-20T21:18:38.830Z,32.73
2022-10-20T21:21:30.429Z,32.53
2022-10-20T21:23:58.297Z,29.20
2022-10-20T21:26:26.472Z,32.37
2022-10-20T21:28:53.549Z,22.73
2022-10-20T21:31:23.153Z,23.77
2022-10-20T21:33:51.654Z,22.97
2022-10-20T21:36:20.433Z,30.43
2022-10-20T21:38:47.600Z,26.50
2022-10-20T21:41:17.180Z,28.73
2022-10-20T21:43:46.947Z,32.70
2022-10-20T21:46:22.900Z,24.37
2022-10-20T21:48:52.202Z,28.70
2022-10-20T21:51:25.095Z,24.90
2022-10-20T21:53:59.581Z,26.07
2022-10-20T21:56:26.359Z,29.23
2022-10-20T21:58:54.609Z,25.23
2022-10-20T22:01:23.870Z,28.70
2022-10-20T22:03:52.438Z,32.70
2022-10-20T22:06:21.263Z,26.70
2022-10-20T22:08:51.994Z,22.47
2022-10-20T22:11:26.086Z,31.23
2022-10-20T22:13:52.968Z,30.13
2022-10-20T22:16:22.755Z,26.07
2022-10-20T22:19:01.556Z,23.90
2022-10-20T22:21:29.455Z,27.50
2022-10-20T22:23:58.257Z,28.23
2022-10-20T22:26:29.843Z,22.20
2022-10-20T22:28:57.821Z,28.20
2022-10-20T22:31:25.655Z,27.80
2022-10-20T22:33:53.900Z,34.87
2022-10-20T22:36:20.933Z,27.77
2022-10-20T22:38:47.774Z,34.67
2022-10-20T22:41:14.640Z,28.60
2022-10-20T22:43:41.588Z,23.13
2022-10-20T22:46:08.333Z,27.97
2022-10-20T22:48:35.659Z,28.10
2022-10-20T22:51:08.504Z,37.40
2022-10-20T22:53:36.021Z,26.80
2022-10-20T22:56:10.528Z,34.10
2022-10-20T22:58:37.698Z,27.33
2022-10-20T23:01:30.693Z,27.80
2022-10-20T23:03:57.379Z,26.17
2022-10-20T23:06:26.308Z,28.63
2022-10-20T23:08:55.159Z,49.20
2022-10-20T23:11:22.952Z,31.40
2022-10-20T23:13:51.040Z,28.90
2022-10-20T23:16:18.119Z,30.97
2022-10-20T23:18:44.820Z,28.83
2022-10-20T23:21:12.827Z,27.30
2022-10-20T23:23:39.742Z,29.27
2022-10-20T23:26:07.776Z,26.13
2022-10-20T23:28:35.775Z,31.00
2022-10-20T23:31:14.226Z,32.60
2022-10-20T23:33:42.374Z,25.63
2022-10-20T23:36:09.638Z,37.30
2022-10-20T23:38:36.404Z,27.33
2022-10-20T23:41:03.678Z,26.50
2022-10-20T23:43:30.697Z,30.43
2022-10-20T23:45:57.384Z,27.07
2022-10-20T23:48:24.435Z,27.50
2022-10-20T23:50:51.191Z,24.70
2022-10-20T23:53:18.282Z,23.90
2022-10-20T23:55:44.941Z,21.57
2022-10-20T23:58:12.087Z,26.97
